• Join FlightAware (Why Join?)
  • Login
  • US Flag 
08:25AM EDT


 

Airport Tracker/Info


-or-


 

Live Flight TrackerFlight Track Log ✈ SWA143 ✈ 14-Jun-2013 ✈ KPHX - KONT

Flight Track Log - Related Links

Times and Time Zones

All times are in EDT time to prevent confusion due to time zone crossing. See the SWA143 flight status page for this flight to view local times or setup timezone preferences in your user account.

Time Position Orientation Groundspeed Altitude Reporting Facility
EDT Latitude Longitude Course Direction KTS MPH feet Rate Location/Type
05:53PM 33.4333 -112.0500 273° West 186 214 2,000  Level Phoenix TRACON
05:55PM 33.4058 -112.1289 247° West 230 265 4,600 2,460 Climbing Albuquerque Center
05:56PM 33.3825 -112.2153 252° West 267 307 8,100 3,000 Climbing Albuquerque Center
05:57PM 33.3897 -112.3225 275° West 290 334 10,800 1,980 Climbing Albuquerque Center
05:58PM 33.4256 -112.4208 294° West 318 366 12,300 1,920 Climbing Albuquerque Center
05:59PM 33.4454 -112.6801 273° West  Level FlightAware Approximate
05:59PM 33.4486 -112.5331 284° West 345 397 14,800  Level Albuquerque Center
06:00PM 33.4503 -112.6625 271° West 351 404 17,100 2,100 Climbing Albuquerque Center
06:01PM 33.4531 -112.7825 272° West 357 411 19,200 1,680 Climbing Albuquerque Center
06:02PM 33.4675 -112.9022 278° West 363 418 20,600 1,620 Climbing Albuquerque Center
06:03PM 33.4931 -113.0275 284° West 382 440 22,500 1,740 Climbing Albuquerque Center
06:04PM 33.5169 -113.1500 283° West 383 441 24,200 1,440 Climbing Albuquerque Center
06:05PM 33.5400 -113.2747 283° West 383 441 25,600 1,440 Climbing Albuquerque Center
06:06PM 33.5686 -113.4286 283° West 393 452 27,200 1,080 Climbing Albuquerque Center
06:07PM 33.5931 -113.5581 283° West 397 457 27,900 780 Climbing Albuquerque Center
06:08PM 33.6172 -113.6853 283° West 414 476 28,900 1,020 Climbing Albuquerque Center
06:09PM 33.6419 -113.8228 282° West 422 486 30,100 480 Climbing Albuquerque Center
06:10PM 33.6736 -113.9922 283° West 430 495 30,000 -60 Descending Albuquerque Center
06:11PM 33.6992 -114.1311 283° West 428 493 30,000  Level Albuquerque Center
06:12PM 33.7136 -114.2850 276° West 416 479 30,000  Level Los Angeles Center
06:13PM 33.7256 -114.4231 276° West 415 478 30,000  Level Los Angeles Center
06:14PM 33.7375 -114.5606 276° West 415 478 30,000  Level Los Angeles Center
06:15PM 33.7472 -114.6994 275° West 419 482 30,000  Level Los Angeles Center
06:16PM 33.7606 -114.8653 276° West 417 480 30,000  Level Los Angeles Center
06:17PM 33.7706 -115.0044 275° West 420 483 30,000  Level Los Angeles Center
06:18PM 33.7822 -115.1436 276° West 420 483 30,000  Level Los Angeles Center
06:20PM 33.7914 -115.2817 275° West 418 481 30,000  Level Los Angeles Center
06:21PM 33.8017 -115.4183 275° West 413 475 30,000 -60 Level Los Angeles Center
06:22PM 33.8125 -115.5831 275° West 414 476 29,900 -780 Descending Los Angeles Center
06:23PM 33.8228 -115.7203 275° West 415 478 28,500 -1,200 Descending Los Angeles Center
06:24PM 33.8319 -115.8517 275° West 402 463 27,500 -1,020 Descending Los Angeles Center
06:25PM 33.8397 -115.9800 274° West 391 450 26,400 -1,020 Descending Los Angeles Center
06:26PM 33.8494 -116.1042 275° West 379 436 25,400 -1,080 Descending Los Angeles Center
06:27PM 33.8586 -116.2528 274° West 372 428 24,200 -1,500 Descending Los Angeles Center
06:28PM 33.8664 -116.3719 275° West 361 415 22,300 -1,920 Descending Los Angeles Center
06:29PM 33.8731 -116.4881 274° West 352 405 20,300 -1,980 Descending Los Angeles Center
06:30PM 33.8792 -116.6025 274° West 346 398 18,300 -2,040 Descending Los Angeles Center
06:31PM 33.8839 -116.7150 273° West 340 391 16,200 -1,920 Descending Los Angeles Center
06:32PM 33.8889 -116.8264 273° West 337 388 14,300 -1,920 Descending Los Angeles Center
06:33PM 33.9231 -116.9500 288° West 329 379 12,200 -2,280 Descending Los Angeles Center
06:33PM 33.9333 -116.9833 290° West 323 372 11,400 -1,800 Descending Southern California TRACON
06:34PM 33.9667 -117.0833 292° West 303 349 10,000 -1,080 Descending Southern California TRACON
06:35PM 33.9833 -117.1667 284° West 243 280 9,300 -1,260 Descending Southern California TRACON
06:36PM 34.0167 -117.2333 301° West 239 275 7,500 -1,680 Descending Southern California TRACON
06:37PM 34.0333 -117.3000 287° West 227 261 6,000 -1,500 Descending Southern California TRACON
06:38PM 34.0500 -117.3667 287° West 210 242 4,600 -1,320 Descending Southern California TRACON
06:39PM 34.0500 -117.4333 270° West 194 223 3,400 -1,200 Descending Southern California TRACON
06:40PM 34.0500 -117.5000 270° West 179 206 2,200 -960 Descending Southern California TRACON
06:41PM 34.0500 -117.5500 270° West 141 162 1,500 -720 Descending Southern California TRACON
06:43PM 34.0500 -117.6000 276° West  Level FlightAware Approximate
06:50PM 34.0560 -117.6012 276° West  Level Estimated